Shell Fueler — WZW7217 — position and weather

sailwx.info

Track history (hours):
 
Tides and Currents Weather Stations Pressure Air Temp Water Temp Dewpoint Dewpoint Depression Visibility Wind Speed Wind Dir Waves Ship Positions

Shell Fueler

Owner: JOHN W STONE OIL DIST .LLC, GRETNA, LA. More information available from US FCC via Universal Licensing System and Coast Guard Vessel Documentation Center.

Last reported at 2015-Jul-29 23:25 UTC. Time now 2015-Jul-30 02:05 UTC.
Position N 29°55' W 090°04'.

Length 21 m; draft 2.5 m.

Type: Towing. MMSI: 366954210.

Date/timePositionNaut miles runAvg speedWind from/ knotsBaromVisibWave heightAir tempDewpointWater temp
2015-Jul-29 23:25N 29°55' W 090°04'0 0.4
2015-Jul-29 22:19N 29°55' W 090°04'0 0.1
2015-Jul-29 21:31N 29°56' W 090°04'0 0.0
2015-Jul-28 12:13N 29°55' W 090°04'0 0.1
2015-Jul-28 11:27N 29°55' W 090°04'0 0.0
2015-Jul-28 10:24N 29°55' W 090°04'0 0.0
2015-Jul-28 09:29N 29°55' W 090°04'2 2.2
2015-Jul-28 08:28N 29°57' W 090°03'1 1.3
2015-Jul-28 07:32N 29°57' W 090°01'1 1.2
2015-Jul-28 06:29N 29°56' W 089°60'0 0.0
2015-Jul-28 05:30N 29°56' W 089°60'0 0.0
2015-Jul-28 04:33N 29°56' W 089°60'0 0.0
2015-Jul-28 03:27N 29°56' W 089°60'1 0.3
2015-Jul-28 00:07N 29°56' W 089°59'0 0.0
2015-Jul-27 23:30N 29°56' W 089°59'0 0.0
2015-Jul-27 22:33N 29°56' W 089°59'1 0.1
2015-Jul-27 01:13N 29°57' W 090°01'3 0.7
2015-Jul-26 21:06N 29°56' W 090°04'0 0.0
2015-Jul-26 19:21N 29°56' W 090°04'0 0.0
2015-Jul-26 18:14N 29°56' W 090°04'0 0.0
2015-Jul-26 17:15N 29°56' W 090°04'0 0.0
2015-Jul-26 16:24N 29°56' W 090°04'0 0.0
2015-Jul-26 15:04N 29°56' W 090°04'0 0.0
2015-Jul-26 14:30N 29°55' W 090°04'2 2.4
2015-Jul-26 13:31N 29°57' W 090°01'3 3.3
2015-Jul-26 12:30N 29°56' W 089°58'  
2015-Jul-23 20:17N 29°55' W 090°05'0 0.4
2015-Jul-23 19:26N 29°55' W 090°05'1 1.3
2015-Jul-23 18:33N 29°55' W 090°04'0 0.0
2015-Jul-23 17:29N 29°55' W 090°04'0 0.0
2015-Jul-23 16:33N 29°55' W 090°04'0 0.0
2015-Jul-23 15:33N 29°55' W 090°04'0 0.0
2015-Jul-23 14:33N 29°55' W 090°04'0 0.0
2015-Jul-23 13:33N 29°55' W 090°04'0 0.0
2015-Jul-23 12:32N 29°55' W 090°04'0 0.2
2015-Jul-23 11:31N 29°55' W 090°04'0 0.0
2015-Jul-23 10:29N 29°55' W 090°04'0 0.0
2015-Jul-23 09:31N 29°55' W 090°04'0 0.0
2015-Jul-23 08:33N 29°55' W 090°04'2 2.2
2015-Jul-23 07:28N 29°57' W 090°02'2 0.1
2015-Jul-22 11:25N 29°55' W 090°04'0 0.0
2015-Jul-22 10:20N 29°55' W 090°04'0 0.0
2015-Jul-22 08:26N 29°55' W 090°04'0 0.0
2015-Jul-22 07:27N 29°55' W 090°04'2 2.5
2015-Jul-22 06:33N 29°57' W 090°02'1 0.0
2015-Jul-20 18:24N 29°56' W 090°03'1 1.1
2015-Jul-20 17:33N 29°55' W 090°04'0 0.0
2015-Jul-20 16:26N 29°56' W 090°04'  
Track history (hours):
 
Tides and Currents Weather Stations Pressure Air Temp Water Temp Dewpoint Dewpoint Depression Visibility Wind Speed Wind Dir Waves Ship Positions

Shell Fueler

Owner: JOHN W STONE OIL DIST .LLC, GRETNA, LA. More information available from US FCC via Universal Licensing System and Coast Guard Vessel Documentation Center.

Last reported at 2015-Jul-29 23:25 UTC. Time now 2015-Jul-30 02:05 UTC.
Position N 29°55' W 090°04'.

Length 21 m; draft 2.5 m.

Type: Towing. MMSI: 366954210.

Date/timePositionNaut miles runAvg speedWind from/ knotsBaromVisibWave heightAir tempDewpointWater temp
2015-Jul-29 23:25N 29°55' W 090°04'0 0.4
2015-Jul-29 22:19N 29°55' W 090°04'0 0.1
2015-Jul-29 21:31N 29°56' W 090°04'0 0.0
2015-Jul-28 12:13N 29°55' W 090°04'0 0.1
2015-Jul-28 11:27N 29°55' W 090°04'0 0.0
2015-Jul-28 10:24N 29°55' W 090°04'0 0.0
2015-Jul-28 09:29N 29°55' W 090°04'2 2.2
2015-Jul-28 08:28N 29°57' W 090°03'1 1.3
2015-Jul-28 07:32N 29°57' W 090°01'1 1.2
2015-Jul-28 06:29N 29°56' W 089°60'0 0.0
2015-Jul-28 05:30N 29°56' W 089°60'0 0.0
2015-Jul-28 04:33N 29°56' W 089°60'0 0.0
2015-Jul-28 03:27N 29°56' W 089°60'1 0.3
2015-Jul-28 00:07N 29°56' W 089°59'0 0.0
2015-Jul-27 23:30N 29°56' W 089°59'0 0.0
2015-Jul-27 22:33N 29°56' W 089°59'1 0.1
2015-Jul-27 01:13N 29°57' W 090°01'3 0.7
2015-Jul-26 21:06N 29°56' W 090°04'0 0.0
2015-Jul-26 19:21N 29°56' W 090°04'0 0.0
2015-Jul-26 18:14N 29°56' W 090°04'0 0.0
2015-Jul-26 17:15N 29°56' W 090°04'0 0.0
2015-Jul-26 16:24N 29°56' W 090°04'0 0.0
2015-Jul-26 15:04N 29°56' W 090°04'0 0.0
2015-Jul-26 14:30N 29°55' W 090°04'2 2.4
2015-Jul-26 13:31N 29°57' W 090°01'3 3.3
2015-Jul-26 12:30N 29°56' W 089°58'  
2015-Jul-23 20:17N 29°55' W 090°05'0 0.4
2015-Jul-23 19:26N 29°55' W 090°05'1 1.3
2015-Jul-23 18:33N 29°55' W 090°04'0 0.0
2015-Jul-23 17:29N 29°55' W 090°04'0 0.0
2015-Jul-23 16:33N 29°55' W 090°04'0 0.0
2015-Jul-23 15:33N 29°55' W 090°04'0 0.0
2015-Jul-23 14:33N 29°55' W 090°04'0 0.0
2015-Jul-23 13:33N 29°55' W 090°04'0 0.0
2015-Jul-23 12:32N 29°55' W 090°04'0 0.2
2015-Jul-23 11:31N 29°55' W 090°04'0 0.0
2015-Jul-23 10:29N 29°55' W 090°04'0 0.0
2015-Jul-23 09:31N 29°55' W 090°04'0 0.0
2015-Jul-23 08:33N 29°55' W 090°04'2 2.2
2015-Jul-23 07:28N 29°57' W 090°02'2 0.1
2015-Jul-22 11:25N 29°55' W 090°04'0 0.0
2015-Jul-22 10:20N 29°55' W 090°04'0 0.0
2015-Jul-22 08:26N 29°55' W 090°04'0 0.0
2015-Jul-22 07:27N 29°55' W 090°04'2 2.5
2015-Jul-22 06:33N 29°57' W 090°02'1 0.0
2015-Jul-20 18:24N 29°56' W 090°03'1 1.1
2015-Jul-20 17:33N 29°55' W 090°04'0 0.0
2015-Jul-20 16:26N 29°56' W 090°04'  

Dump ship's entire track history